Time;durP1;ratioP1;P1;durP2;ratioP2;P2;SDS_P1;SDS_P2;PMS_P1;PMS_P2;Temp;Humidity;BMP_temperature;BMP_pressure;BME280_temperature;BME280_humidity;BME280_pressure;Samples;Min_cycle;Max_cycle;Signal;HPM_P1;HPM_P2
2023/06/07 00:01:50;;;;;;;;;;;;;;;13.35;55.16;101657.66;107103;1260;124370;-83
2023/06/07 00:04:16;;;;;;;;;;;;;;;13.33;55.30;101657.58;107050;1260;71450;-83
2023/06/07 00:06:46;;;;;;;;;;;;;;;13.31;55.51;101657.54;106892;1262;124221;-84
2023/06/07 00:09:13;;;;;;;;;;;;;;;13.30;55.61;101655.88;107116;1261;60168;-83
2023/06/07 00:11:39;;;;;;;;;;;;;;;13.28;55.74;101653.86;107036;1261;124521;-83
2023/06/07 00:14:07;;;;;;;;;;;;;;;13.26;55.80;101655.39;107044;1260;71747;-83
2023/06/07 00:16:33;;;;;;;;;;;;;;;13.22;56.03;101651.26;107029;1261;71150;-82
2023/06/07 00:19:03;;;;;;;;;;;;;;;13.19;56.13;101649.59;106935;1261;124293;-83
2023/06/07 00:21:30;;;;;;;;;;;;;;;13.16;56.30;101651.79;107063;1260;61074;-83
2023/06/07 00:23:58;;;;;;;;;;;;;;;13.12;56.43;101647.97;107021;1260;125029;-83
2023/06/07 00:26:24;;;;;;;;;;;;;;;13.10;56.47;101648.95;107199;1263;65470;-83
2023/06/07 00:28:51;;;;;;;;;;;;;;;13.06;56.50;101651.30;106968;1262;72449;-83
2023/06/07 00:31:17;;;;;;;;;;;;;;;13.02;56.52;101648.73;106918;1261;124272;-83
2023/06/07 00:33:44;;;;;;;;;;;;;;;12.99;56.83;101647.77;106878;1261;62356;-83
2023/06/07 00:36:10;;;;;;;;;;;;;;;12.96;56.88;101646.62;107223;1261;124196;-83
2023/06/07 00:38:44;;;;;;;;;;;;;;;12.94;56.99;101645.34;107233;1260;61360;-83
2023/06/07 00:41:10;;;;;;;;;;;;;;;12.92;57.11;101647.89;107042;1260;71483;-83
2023/06/07 00:46:44;;;;;;;;;;;;;;;12.85;57.22;101647.34;106927;1260;61781;-83
2023/06/07 00:49:17;;;;;;;;;;;;;;;12.81;57.27;101646.89;106820;1260;124579;-83
2023/06/07 00:51:43;;;;;;;;;;;;;;;12.78;57.32;101648.20;106996;1260;65700;-83
2023/06/07 00:54:12;;;;;;;;;;;;;;;12.76;57.42;101646.19;107081;1260;124395;-83
2023/06/07 00:56:38;;;;;;;;;;;;;;;12.73;57.56;101647.17;107301;1260;59516;-83
2023/06/07 00:59:05;;;;;;;;;;;;;;;12.70;57.69;101644.77;107115;1260;61335;-83
2023/06/07 01:01:33;;;;;;;;;;;;;;;12.67;57.79;101646.09;107083;1264;124570;-83
2023/06/07 01:04:01;;;;;;;;;;;;;;;12.64;57.90;101647.23;106788;1260;66565;-83
2023/06/07 01:06:29;;;;;;;;;;;;;;;12.61;58.04;101646.80;106769;1261;124236;-83
2023/06/07 01:08:55;;;;;;;;;;;;;;;12.59;58.22;101644.10;106988;1263;60429;-82
2023/06/07 01:11:23;;;;;;;;;;;;;;;12.57;58.33;101644.04;106946;1262;60576;-82
2023/06/07 01:13:58;;;;;;;;;;;;;;;12.55;58.39;101646.26;106658;1260;124590;-82
2023/06/07 01:16:27;;;;;;;;;;;;;;;12.53;58.48;101645.67;106941;1260;65631;-82
2023/06/07 01:19:04;;;;;;;;;;;;;;;12.51;58.73;101643.13;106826;1260;124560;-82
2023/06/07 01:21:32;;;;;;;;;;;;;;;12.49;58.71;101642.73;106773;1261;59402;-83
2023/06/07 01:23:59;;;;;;;;;;;;;;;12.47;58.77;101637.36;106885;1260;124412;-82
2023/06/07 01:26:31;;;;;;;;;;;;;;;12.44;58.87;101636.07;106924;1261;74746;-82
2023/06/07 01:29:05;;;;;;;;;;;;;;;12.42;58.94;101634.77;107002;1260;67168;-83
2023/06/07 01:31:33;;;;;;;;;;;;;;;12.40;58.98;101631.91;107117;1260;124454;-82
2023/06/07 01:33:59;;;;;;;;;;;;;;;12.38;59.01;101629.89;107043;1260;59843;-82
2023/06/07 01:36:25;;;;;;;;;;;;;;;12.36;59.10;101629.46;107225;1260;124129;-82
2023/06/07 01:38:52;;;;;;;;;;;;;;;12.34;59.11;101628.34;107111;1260;59763;-82
2023/06/07 01:41:25;;;;;;;;;;;;;;;12.33;59.21;101625.48;107193;1260;59336;-82
2023/06/07 01:43:51;;;;;;;;;;;;;;;12.30;59.19;101625.58;107068;1260;124579;-82
2023/06/07 01:46:19;;;;;;;;;;;;;;;12.29;59.27;101623.95;107310;1261;59991;-82
2023/06/07 01:48:46;;;;;;;;;;;;;;;12.27;59.41;101625.32;107081;1260;124653;-82
2023/06/07 01:51:15;;;;;;;;;;;;;;;12.26;59.48;101626.50;107211;1260;61133;-82
2023/06/07 01:53:41;;;;;;;;;;;;;;;12.24;59.52;101623.98;107026;1262;124740;-82
2023/06/07 01:56:08;;;;;;;;;;;;;;;12.23;59.65;101628.52;106965;1260;60626;-82
2023/06/07 01:58:40;;;;;;;;;;;;;;;12.21;59.72;101626.71;106978;1261;59633;-83
2023/06/07 02:01:10;;;;;;;;;;;;;;;12.21;59.81;101624.39;106983;1261;124710;-82
2023/06/07 02:03:38;;;;;;;;;;;;;;;12.21;60.06;101626.16;106945;1260;73705;-82
2023/06/07 02:06:06;;;;;;;;;;;;;;;12.21;60.12;101624.92;106856;1262;124281;-82
2023/06/07 02:08:45;;;;;;;;;;;;;;;12.20;60.16;101623.84;106990;1263;71776;-82
2023/06/07 02:11:11;;;;;;;;;;;;;;;12.20;60.25;101625.28;106998;1260;61337;-82
2023/06/07 02:13:40;;;;;;;;;;;;;;;12.21;60.37;101623.54;107285;1262;124719;-82
2023/06/07 02:16:08;;;;;;;;;;;;;;;12.21;60.47;101621.09;107422;1260;75154;-82
2023/06/07 02:18:40;;;;;;;;;;;;;;;12.22;60.59;101619.53;107300;1260;124399;-82
2023/06/07 02:21:10;;;;;;;;;;;;;;;12.23;60.57;101619.71;107414;1260;71336;-82
2023/06/07 02:23:38;;;;;;;;;;;;;;;12.26;60.64;101618.94;106853;1266;124746;-82
2023/06/07 02:26:05;;;;;;;;;;;;;;;12.29;60.76;101619.38;107271;1260;61202;-82
2023/06/07 02:28:31;;;;;;;;;;;;;;;12.30;60.77;101615.38;107233;1261;73399;-82
2023/06/07 02:30:58;;;;;;;;;;;;;;;12.32;60.75;101614.02;107063;1260;126439;-82
2023/06/07 02:33:24;;;;;;;;;;;;;;;12.33;60.86;101613.02;107044;1260;61356;-82
2023/06/07 02:35:53;;;;;;;;;;;;;;;12.36;60.80;101617.14;106863;1261;125372;-82
2023/06/07 02:38:27;;;;;;;;;;;;;;;12.40;60.93;101616.04;107143;1261;61150;-82
2023/06/07 02:40:55;;;;;;;;;;;;;;;12.44;60.93;101616.52;107357;1260;74852;-82
2023/06/07 02:43:22;;;;;;;;;;;;;;;12.49;61.03;101620.89;107306;1261;124798;-83
2023/06/07 02:45:49;;;;;;;;;;;;;;;12.54;61.03;101619.48;107108;1261;72714;-83
2023/06/07 02:48:16;;;;;;;;;;;;;;;12.59;61.02;101620.69;107093;1264;124141;-82
2023/06/07 02:50:42;;;;;;;;;;;;;;;12.64;61.02;101620.27;107178;1262;61217;-83
2023/06/07 02:53:09;;;;;;;;;;;;;;;12.70;61.00;101620.82;107284;1264;61237;-83
2023/06/07 02:55:42;;;;;;;;;;;;;;;12.77;61.03;101618.04;107120;1261;125471;-83
2023/06/07 02:58:15;;;;;;;;;;;;;;;12.84;61.12;101618.61;107159;1260;71672;-83
2023/06/07 03:00:49;;;;;;;;;;;;;;;12.94;60.99;101622.78;107023;1264;124821;-83
2023/06/07 03:03:21;;;;;;;;;;;;;;;13.05;60.91;101624.84;107185;1261;60565;-83
2023/06/07 03:06:04;;;;;;;;;;;;;;;13.16;60.92;101623.94;107061;1260;125401;-85
2023/06/07 03:08:33;;;;;;;;;;;;;;;13.29;60.70;101625.38;107041;1262;65755;-83
2023/06/07 03:11:00;;;;;;;;;;;;;;;13.42;60.69;101625.75;107214;1261;71494;-83
2023/06/07 03:13:27;;;;;;;;;;;;;;;13.53;60.60;101625.16;107203;1264;124809;-82
2023/06/07 03:15:53;;;;;;;;;;;;;;;13.68;60.41;101626.96;107188;1261;61237;-82
2023/06/07 03:18:19;;;;;;;;;;;;;;;13.82;60.28;101626.45;106886;1264;125140;-82
2023/06/07 03:20:47;;;;;;;;;;;;;;;13.96;60.24;101630.16;107037;1260;62081;-84
2023/06/07 03:23:14;;;;;;;;;;;;;;;14.14;60.05;101623.90;107052;1261;70768;-83
2023/06/07 03:25:40;;;;;;;;;;;;;;;14.61;60.64;101626.77;107304;1262;125433;-84
2023/06/07 03:28:07;;;;;;;;;;;;;;;15.41;60.37;101619.06;107434;1261;61498;-82
2023/06/07 03:30:33;;;;;;;;;;;;;;;16.10;59.53;101616.07;107149;1262;124921;-82
2023/06/07 03:33:00;;;;;;;;;;;;;;;16.49;58.37;101612.59;107085;1260;59299;-83
2023/06/07 03:35:27;;;;;;;;;;;;;;;16.53;57.41;101616.00;107006;1262;71233;-83
2023/06/07 03:37:54;;;;;;;;;;;;;;;16.52;57.00;101617.42;106918;1262;139596;-83
2023/06/07 03:40:27;;;;;;;;;;;;;;;16.57;56.92;101621.02;107029;1261;60511;-83
2023/06/07 03:42:54;;;;;;;;;;;;;;;16.68;56.60;101619.23;106879;1261;124763;-83
2023/06/07 03:45:20;;;;;;;;;;;;;;;16.87;56.41;101620.21;107224;1262;62319;-83
2023/06/07 03:47:46;;;;;;;;;;;;;;;17.36;56.42;101622.58;107179;1262;124314;-83
2023/06/07 03:50:14;;;;;;;;;;;;;;;18.71;57.03;101617.64;107037;1260;59316;-83
2023/06/07 03:52:40;;;;;;;;;;;;;;;20.57;56.02;101610.64;106887;1261;60113;-84
2023/06/07 03:55:07;;;;;;;;;;;;;;;22.16;53.75;101613.91;106870;1261;124553;-84
2023/06/07 03:57:39;;;;;;;;;;;;;;;23.42;51.86;101608.16;107021;1262;61276;-84
2023/06/07 04:00:06;;;;;;;;;;;;;;;24.59;49.79;101609.98;107073;1262;124907;-81
2023/06/07 04:02:33;;;;;;;;;;;;;;;25.76;48.34;101611.59;107079;1261;61318;-82
2023/06/07 04:04:59;;;;;;;;;;;;;;;26.82;46.56;101612.94;107216;1261;60184;-82
2023/06/07 04:07:27;;;;;;;;;;;;;;;27.78;44.97;101618.31;107110;1260;124720;-83
2023/06/07 04:09:53;;;;;;;;;;;;;;;28.63;43.20;101618.30;107297;1260;66127;-81
2023/06/07 04:12:19;;;;;;;;;;;;;;;29.17;41.84;101624.77;107192;1260;124643;-81
2023/06/07 04:14:45;;;;;;;;;;;;;;;29.75;40.80;101624.47;107410;1265;61822;-82
2023/06/07 04:17:12;;;;;;;;;;;;;;;29.59;39.29;101623.28;107326;1261;60025;-82
2023/06/07 04:19:38;;;;;;;;;;;;;;;29.65;39.24;101622.67;107057;1260;124396;-83
2023/06/07 04:22:04;;;;;;;;;;;;;;;30.36;38.51;101624.23;107081;1261;62287;-83
2023/06/07 04:24:31;;;;;;;;;;;;;;;30.71;37.62;101622.70;107113;1261;124536;-82
2023/06/07 04:26:58;;;;;;;;;;;;;;;31.33;37.14;101625.60;107048;1264;60136;-81
2023/06/07 04:29:27;;;;;;;;;;;;;;;32.12;36.26;101621.00;107092;1262;61260;-81
2023/06/07 04:31:56;;;;;;;;;;;;;;;32.84;35.22;101623.21;107127;1261;124414;-82
2023/06/07 04:34:23;;;;;;;;;;;;;;;33.46;34.59;101627.02;107197;1262;59540;-80
2023/06/07 04:36:50;;;;;;;;;;;;;;;34.16;33.66;101627.50;106879;1262;124686;-80
2023/06/07 04:39:20;;;;;;;;;;;;;;;34.88;32.94;101627.63;106908;1260;60630;-82
2023/06/07 04:41:48;;;;;;;;;;;;;;;35.37;31.90;101628.38;107346;1261;124344;-82
2023/06/07 04:44:27;;;;;;;;;;;;;;;35.85;31.52;101627.70;106795;1262;66110;-82
2023/06/07 04:46:56;;;;;;;;;;;;;;;36.81;30.80;101630.02;107071;1261;61366;-84
2023/06/07 04:49:23;;;;;;;;;;;;;;;37.65;29.87;101627.18;107337;1263;124374;-82
2023/06/07 04:51:51;;;;;;;;;;;;;;;38.18;28.91;101631.57;106660;1267;60329;-83
2023/06/07 04:54:32;;;;;;;;;;;;;;;38.59;28.47;101631.11;106568;1260;124187;-85
2023/06/07 04:56:58;;;;;;;;;;;;;;;38.96;27.66;101632.77;107067;1260;65874;-85
2023/06/07 04:59:34;;;;;;;;;;;;;;;39.31;27.07;101632.98;107264;1262;60015;-85
2023/06/07 05:02:01;;;;;;;;;;;;;;;38.91;26.40;101635.49;107097;1262;64183;-84
2023/06/07 05:04:30;;;;;;;;;;;;;;;38.01;26.64;101636.19;106912;1261;61788;-86
2023/06/07 05:06:58;;;;;;;;;;;;;;;38.09;26.60;101632.24;106686;1265;124610;-82
2023/06/07 05:09:30;;;;;;;;;;;;;;;37.76;26.20;101632.39;106997;1262;64690;-84
2023/06/07 05:11:56;;;;;;;;;;;;;;;36.82;26.12;101628.84;106926;1262;124502;-80
2023/06/07 05:14:22;;;;;;;;;;;;;;;35.65;26.59;101627.19;107288;1260;59812;-83
2023/06/07 05:16:48;;;;;;;;;;;;;;;35.15;27.47;101629.77;107075;1261;60592;-80
2023/06/07 05:19:16;;;;;;;;;;;;;;;35.73;27.68;101630.30;107475;1260;124981;-80
2023/06/07 05:21:44;;;;;;;;;;;;;;;36.62;27.36;101632.86;107096;1260;66038;-84
2023/06/07 05:24:10;;;;;;;;;;;;;;;37.18;26.94;101633.37;106714;1262;124452;-83
2023/06/07 05:26:37;;;;;;;;;;;;;;;37.68;26.28;101637.91;107036;1261;62392;-84
2023/06/07 05:29:08;;;;;;;;;;;;;;;36.89;25.62;101635.79;107254;1260;61129;-85
2023/06/07 05:31:35;;;;;;;;;;;;;;;36.21;25.82;101634.75;106898;1261;124212;-83
2023/06/07 05:34:01;;;;;;;;;;;;;;;36.05;26.13;101635.35;106712;1262;64493;-83
2023/06/07 05:36:29;;;;;;;;;;;;;;;36.66;26.13;101636.95;106923;1261;124149;-82
2023/06/07 05:38:56;;;;;;;;;;;;;;;36.65;25.39;101635.73;106883;1261;62673;-83
2023/06/07 05:41:22;;;;;;;;;;;;;;;35.16;25.35;101636.73;107258;1260;61980;-82
2023/06/07 05:43:49;;;;;;;;;;;;;;;33.36;26.03;101636.27;107424;1262;124137;-83
2023/06/07 05:46:16;;;;;;;;;;;;;;;31.98;26.96;101634.72;108203;1260;66116;-83
2023/06/07 05:48:42;;;;;;;;;;;;;;;30.70;27.82;101641.02;107073;1262;124475;-82
2023/06/07 05:51:16;;;;;;;;;;;;;;;29.45;28.76;101642.85;107020;1260;59902;-82
2023/06/07 05:54:10;;;;;;;;;;;;;;;28.29;29.67;101645.65;107200;1262;124665;-83
2023/06/07 05:56:43;;;;;;;;;;;;;;;27.29;31.06;101644.91;107210;1261;60539;-84
2023/06/07 05:59:12;;;;;;;;;;;;;;;26.86;31.87;101645.63;107377;1261;60177;-87
2023/06/07 06:01:40;;;;;;;;;;;;;;;26.52;32.48;101649.08;106702;1265;124267;-86
2023/06/07 06:04:07;;;;;;;;;;;;;;;26.04;33.02;101647.60;106750;1261;70292;-87
2023/06/07 06:06:45;;;;;;;;;;;;;;;25.72;33.76;101646.75;106806;1260;124776;-87
2023/06/07 06:09:17;;;;;;;;;;;;;;;25.45;34.08;101642.34;106783;1261;61290;-85
2023/06/07 06:11:55;;;;;;;;;;;;;;;25.19;34.62;101640.58;106784;1260;124796;-85
2023/06/07 06:14:30;;;;;;;;;;;;;;;24.90;35.04;101643.84;107402;1260;67205;-85
2023/06/07 06:17:06;;;;;;;;;;;;;;;24.60;35.60;101647.69;107068;1262;71896;-86
2023/06/07 06:19:38;;;;;;;;;;;;;;;24.42;36.24;101647.09;106821;1262;124541;-85
2023/06/07 06:22:27;;;;;;;;;;;;;;;24.30;36.63;101649.09;106885;1260;61291;-88
2023/06/07 06:28:10;;;;;;;;;;;;;;;23.93;37.55;101652.05;107056;1262;67084;-86
2023/06/07 06:30:37;;;;;;;;;;;;;;;23.76;37.86;101652.11;106835;1264;124061;-87
2023/06/07 06:33:05;;;;;;;;;;;;;;;23.61;38.06;101654.31;106788;1263;62340;-87
2023/06/07 06:35:40;;;;;;;;;;;;;;;23.46;38.52;101650.59;106676;1260;61175;-86
2023/06/07 06:38:20;;;;;;;;;;;;;;;23.35;38.69;101653.05;106861;1261;74339;-87
2023/06/07 06:40:57;;;;;;;;;;;;;;;23.22;38.89;101658.60;106746;1261;65601;-86
2023/06/07 06:43:38;;;;;;;;;;;;;;;23.09;39.19;101657.52;106813;1262;124256;-86
2023/06/07 06:46:05;;;;;;;;;;;;;;;22.98;38.87;101657.44;106860;1260;61843;-86
2023/06/07 06:48:38;;;;;;;;;;;;;;;22.95;39.07;101655.33;106775;1260;62144;-86
2023/06/07 06:51:15;;;;;;;;;;;;;;;23.05;39.30;101655.41;106787;1267;73375;-87
2023/06/07 06:53:41;;;;;;;;;;;;;;;23.16;39.04;101659.05;106827;1262;67600;-87
2023/06/07 06:56:21;;;;;;;;;;;;;;;23.23;38.70;101656.80;106767;1262;60439;-86
2023/06/07 06:59:01;;;;;;;;;;;;;;;23.32;38.68;101656.33;106747;1262;60499;-86
2023/06/07 07:01:51;;;;;;;;;;;;;;;23.37;38.61;101659.29;106908;1261;124079;-85
2023/06/07 07:04:18;;;;;;;;;;;;;;;23.52;38.61;101659.98;107135;1260;73328;-86
2023/06/07 07:07:13;;;;;;;;;;;;;;;23.69;38.53;101660.63;107042;1261;124160;-87
2023/06/07 07:09:54;;;;;;;;;;;;;;;23.82;37.84;101664.41;107247;1264;71351;-86
2023/06/07 07:12:24;;;;;;;;;;;;;;;24.06;38.05;101662.60;107059;1264;124851;-86
2023/06/07 07:14:51;;;;;;;;;;;;;;;24.28;37.93;101661.50;107201;1264;60422;-86
2023/06/07 07:17:25;;;;;;;;;;;;;;;24.47;38.10;101663.14;107047;1262;72990;-86
2023/06/07 07:19:53;;;;;;;;;;;;;;;24.50;37.78;101661.11;107034;1261;124067;-86
2023/06/07 07:22:32;;;;;;;;;;;;;;;24.48;37.54;101666.36;106785;1261;72777;-86
2023/06/07 07:24:58;;;;;;;;;;;;;;;24.55;37.71;101664.10;106964;1262;124403;-86
2023/06/07 07:27:37;;;;;;;;;;;;;;;24.70;38.14;101664.73;107136;1260;60351;-85
2023/06/07 07:30:39;;;;;;;;;;;;;;;24.65;38.33;101665.89;107041;1260;124293;-87
2023/06/07 07:33:14;;;;;;;;;;;;;;;24.51;38.54;101664.16;106784;1261;67103;-85
2023/06/07 07:35:48;;;;;;;;;;;;;;;24.48;38.89;101666.53;107077;1262;72587;-85
2023/06/07 07:38:15;;;;;;;;;;;;;;;24.49;39.41;101666.88;107095;1263;123128;-85
2023/06/07 07:40:44;;;;;;;;;;;;;;;24.54;39.47;101665.20;107193;1261;61314;-83
2023/06/07 07:43:12;;;;;;;;;;;;;;;24.55;39.43;101660.15;107193;1265;125034;-82
2023/06/07 07:45:46;;;;;;;;;;;;;;;24.58;39.33;101662.78;107096;1262;65936;-83
2023/06/07 07:48:13;;;;;;;;;;;;;;;24.55;39.37;101662.68;106937;1262;125095;-83
2023/06/07 07:50:45;;;;;;;;;;;;;;;24.57;39.59;101658.14;107258;1265;59874;-83
2023/06/07 07:53:11;;;;;;;;;;;;;;;24.62;39.46;101659.84;108341;1261;60155;-84
2023/06/07 07:55:38;;;;;;;;;;;;;;;24.66;39.52;101659.59;107324;1265;124317;-84
2023/06/07 07:58:04;;;;;;;;;;;;;;;24.68;39.67;101657.02;107424;1260;60919;-84
2023/06/07 08:00:32;;;;;;;;;;;;;;;24.74;39.72;101659.08;107082;1261;124409;-83
2023/06/07 08:02:59;;;;;;;;;;;;;;;24.78;39.82;101662.23;107046;1261;60408;-83
2023/06/07 08:05:28;;;;;;;;;;;;;;;24.80;39.75;101661.30;106983;1261;60591;-84
2023/06/07 08:07:54;;;;;;;;;;;;;;;24.73;39.83;101662.69;106879;1260;124967;-84
2023/06/07 08:10:27;;;;;;;;;;;;;;;24.67;39.72;101666.23;107197;1262;61889;-83
2023/06/07 08:12:53;;;;;;;;;;;;;;;24.69;39.46;101665.83;107322;1261;124524;-83
2023/06/07 08:15:19;;;;;;;;;;;;;;;24.75;39.70;101667.33;107278;1261;62344;-83
2023/06/07 08:17:46;;;;;;;;;;;;;;;24.76;39.86;101669.08;107148;1261;61337;-83
2023/06/07 08:20:12;;;;;;;;;;;;;;;24.85;39.73;101670.88;108636;1260;124512;-83
2023/06/07 08:22:38;;;;;;;;;;;;;;;24.90;39.43;101670.42;107264;1265;60124;-83
2023/06/07 08:25:05;;;;;;;;;;;;;;;24.95;39.54;101668.52;107144;1264;124135;-83
2023/06/07 08:27:34;;;;;;;;;;;;;;;25.04;39.69;101665.48;107151;1261;60773;-84
2023/06/07 08:30:00;;;;;;;;;;;;;;;25.21;39.42;101665.84;106874;1261;124426;-83
2023/06/07 08:32:28;;;;;;;;;;;;;;;25.26;39.17;101667.21;107308;1262;60214;-83
2023/06/07 08:34:55;;;;;;;;;;;;;;;25.19;38.99;101662.30;107188;1266;67026;-83
2023/06/07 08:37:21;;;;;;;;;;;;;;;25.14;38.93;101663.30;106893;1265;124103;-83
2023/06/07 08:39:48;;;;;;;;;;;;;;;25.01;38.67;101661.23;106872;1261;61383;-83
2023/06/07 08:42:14;;;;;;;;;;;;;;;24.91;38.70;101659.83;106964;1262;124910;-84
2023/06/07 08:44:50;;;;;;;;;;;;;;;24.84;38.63;101663.19;107152;1260;61377;-83
2023/06/07 08:47:18;;;;;;;;;;;;;;;24.71;38.40;101661.11;107196;1261;67651;-83
2023/06/07 08:49:58;;;;;;;;;;;;;;;24.65;38.55;101662.13;106778;1262;124270;-86
2023/06/07 08:52:27;;;;;;;;;;;;;;;24.66;38.81;101662.63;106927;1260;61288;-83
2023/06/07 08:54:55;;;;;;;;;;;;;;;24.62;38.65;101661.63;107011;1264;124302;-83
2023/06/07 08:57:21;;;;;;;;;;;;;;;24.59;38.90;101666.36;107297;1261;73011;-83
2023/06/07 08:59:48;;;;;;;;;;;;;;;24.58;38.80;101664.58;107172;1265;248467;-83
2023/06/07 09:02:15;;;;;;;;;;;;;;;24.54;38.72;101666.45;107013;1262;74170;-83
2023/06/07 09:04:49;;;;;;;;;;;;;;;24.46;38.72;101662.25;106677;1261;60588;-83
2023/06/07 09:07:19;;;;;;;;;;;;;;;24.40;38.76;101662.02;106845;1260;124373;-87
2023/06/07 09:09:53;;;;;;;;;;;;;;;24.38;38.61;101662.40;106873;1260;74493;-84
2023/06/07 09:12:23;;;;;;;;;;;;;;;24.34;38.65;101661.40;107016;1261;124382;-86
2023/06/07 09:14:51;;;;;;;;;;;;;;;24.34;38.69;101662.48;107174;1261;71617;-87
2023/06/07 09:17:24;;;;;;;;;;;;;;;24.37;38.76;101664.94;106740;1262;60475;-87
2023/06/07 09:19:51;;;;;;;;;;;;;;;24.34;38.68;101661.77;106821;1261;124560;-84
2023/06/07 09:22:26;;;;;;;;;;;;;;;24.29;38.78;101664.90;106894;1261;61770;-87
2023/06/07 09:24:53;;;;;;;;;;;;;;;24.25;38.94;101661.02;106814;1261;124150;-87
2023/06/07 09:27:51;;;;;;;;;;;;;;;24.27;39.01;101661.89;106847;1261;72790;-87
2023/06/07 09:30:18;;;;;;;;;;;;;;;24.32;39.02;101667.36;106883;1260;124411;-87
2023/06/07 09:32:46;;;;;;;;;;;;;;;24.33;38.99;101665.02;107090;1266;61348;-87
2023/06/07 09:35:28;;;;;;;;;;;;;;;24.31;39.04;101666.31;106968;1260;73562;-88
2023/06/07 09:38:04;;;;;;;;;;;;;;;24.28;38.99;101666.71;106697;1260;124167;-87
2023/06/07 09:40:49;;;;;;;;;;;;;;;24.26;38.87;101664.75;106814;1265;70887;-87
2023/06/07 09:43:22;;;;;;;;;;;;;;;24.25;38.48;101670.17;106885;1261;124639;-87
2023/06/07 09:46:09;;;;;;;;;;;;;;;24.22;38.35;101665.00;106850;1263;60252;-87
2023/06/07 09:51:27;;;;;;;;;;;;;;;24.28;38.04;101672.44;107077;1264;65485;-87
2023/06/07 09:54:11;;;;;;;;;;;;;;;24.23;38.18;101665.17;106813;1260;124405;-86
2023/06/07 09:56:44;;;;;;;;;;;;;;;24.21;38.36;101662.53;106793;1261;62173;-87
2023/06/07 09:59:23;;;;;;;;;;;;;;;24.29;38.25;101663.29;106826;1261;61292;-87
2023/06/07 10:01:59;;;;;;;;;;;;;;;24.37;38.34;101664.40;106580;1261;124033;-87
2023/06/07 10:04:47;;;;;;;;;;;;;;;24.43;38.32;101662.48;106838;1260;67110;-87
2023/06/07 10:07:14;;;;;;;;;;;;;;;24.49;38.06;101662.74;106732;1260;124535;-87
2023/06/07 10:09:41;;;;;;;;;;;;;;;24.49;37.77;101660.95;106578;1266;60063;-87
2023/06/07 10:15:15;;;;;;;;;;;;;;;24.46;37.49;101651.86;106694;1266;74906;-87
2023/06/07 10:17:52;;;;;;;;;;;;;;;24.48;37.34;101655.77;106983;1260;67233;-89
2023/06/07 10:20:48;;;;;;;;;;;;;;;24.53;36.92;101649.96;106854;1265;70984;-90
2023/06/07 10:23:28;;;;;;;;;;;;;;;24.60;36.77;101651.81;106702;1260;61289;-89
2023/06/07 10:26:29;;;;;;;;;;;;;;;24.61;36.38;101650.71;106586;1260;124036;-88
2023/06/07 10:29:07;;;;;;;;;;;;;;;24.64;36.28;101651.55;107012;1260;73466;-85
2023/06/07 10:31:34;;;;;;;;;;;;;;;24.69;36.14;101651.29;107096;1263;124384;-86
2023/06/07 10:34:08;;;;;;;;;;;;;;;24.72;35.91;101651.03;106773;1261;71483;-87
2023/06/07 10:36:39;;;;;;;;;;;;;;;24.73;35.65;101651.02;106683;1260;124557;-84
2023/06/07 10:39:06;;;;;;;;;;;;;;;24.70;35.39;101652.70;106881;1260;59655;-85
2023/06/07 10:41:33;;;;;;;;;;;;;;;24.68;35.27;101644.11;107328;1260;73402;-87
2023/06/07 10:44:01;;;;;;;;;;;;;;;24.67;35.22;101646.81;107101;1260;124630;-85
2023/06/07 10:46:33;;;;;;;;;;;;;;;24.68;35.24;101644.66;107158;1261;72607;-86
2023/06/07 10:49:00;;;;;;;;;;;;;;;24.69;35.02;101646.44;107142;1260;123145;-84
2023/06/07 10:51:55;;;;;;;;;;;;;;;24.68;35.14;101643.23;107287;1264;62103;-84
2023/06/07 10:54:31;;;;;;;;;;;;;;;24.70;34.86;101642.10;107124;1260;124844;-86
2023/06/07 10:56:59;;;;;;;;;;;;;;;24.71;34.83;101638.33;106978;1260;65678;-83
2023/06/07 10:59:25;;;;;;;;;;;;;;;24.73;34.68;101644.92;107179;1260;73299;-83
2023/06/07 11:02:12;;;;;;;;;;;;;;;24.75;34.67;101639.84;106871;1264;124145;-84
2023/06/07 11:04:57;;;;;;;;;;;;;;;24.76;34.68;101635.71;107291;1260;60886;-84
2023/06/07 11:07:32;;;;;;;;;;;;;;;24.76;34.61;101636.23;107277;1260;124320;-84
2023/06/07 11:10:07;;;;;;;;;;;;;;;24.79;34.69;101630.98;107235;1261;65910;-84
2023/06/07 11:12:44;;;;;;;;;;;;;;;24.84;34.66;101628.19;107452;1261;124312;-84
2023/06/07 11:15:17;;;;;;;;;;;;;;;24.92;34.81;101630.34;107028;1260;62313;-84
2023/06/07 11:17:53;;;;;;;;;;;;;;;24.98;34.47;101630.23;107001;1260;60215;-84
2023/06/07 11:20:38;;;;;;;;;;;;;;;24.99;34.07;101629.50;106988;1261;73295;-84
2023/06/07 11:23:24;;;;;;;;;;;;;;;24.94;34.13;101624.55;106970;1260;66032;-83
2023/06/07 11:25:57;;;;;;;;;;;;;;;24.91;34.08;101625.69;107256;1260;125002;-83
2023/06/07 11:31:21;;;;;;;;;;;;;;;24.90;34.12;101615.67;108519;1260;124172;-82
2023/06/07 11:33:48;;;;;;;;;;;;;;;24.94;34.17;101621.69;108747;1263;59333;-82
2023/06/07 11:36:14;;;;;;;;;;;;;;;24.97;34.03;101616.61;107558;1261;125037;-82
2023/06/07 11:38:41;;;;;;;;;;;;;;;25.00;34.07;101616.89;107127;1260;60415;-83
2023/06/07 11:41:07;;;;;;;;;;;;;;;25.03;33.78;101616.12;107292;1260;61326;-82
2023/06/07 11:43:34;;;;;;;;;;;;;;;25.05;33.70;101618.77;107335;1260;124744;-83
2023/06/07 11:46:00;;;;;;;;;;;;;;;25.05;33.92;101617.33;107031;1265;62279;-84
2023/06/07 11:48:27;;;;;;;;;;;;;;;25.07;33.77;101617.13;107007;1261;124873;-84
2023/06/07 11:50:54;;;;;;;;;;;;;;;25.09;33.75;101614.90;107526;1260;71821;-86
2023/06/07 11:53:22;;;;;;;;;;;;;;;25.16;33.59;101617.65;107087;1260;61446;-83
2023/06/07 11:55:49;;;;;;;;;;;;;;;25.25;33.70;101613.86;107140;1263;124199;-85
2023/06/07 11:58:17;;;;;;;;;;;;;;;25.34;33.64;101613.49;106984;1260;61020;-83
2023/06/07 12:00:44;;;;;;;;;;;;;;;25.40;33.26;101609.39;107062;1260;124382;-83
2023/06/07 12:03:13;;;;;;;;;;;;;;;25.40;32.72;101612.63;107134;1261;61318;-83
2023/06/07 12:05:41;;;;;;;;;;;;;;;25.38;32.50;101613.40;107146;1260;60915;-83
2023/06/07 12:08:12;;;;;;;;;;;;;;;25.36;32.19;101607.88;107108;1265;124886;-83
2023/06/07 12:10:40;;;;;;;;;;;;;;;25.40;32.57;101610.11;107147;1261;72191;-84
2023/06/07 12:13:18;;;;;;;;;;;;;;;25.46;32.29;101609.80;106823;1261;124636;-83
2023/06/07 12:15:54;;;;;;;;;;;;;;;25.46;32.27;101612.49;106917;1260;72662;-85
2023/06/07 12:18:34;;;;;;;;;;;;;;;25.47;32.46;101613.02;106773;1261;123369;-84
2023/06/07 12:21:05;;;;;;;;;;;;;;;25.50;32.52;101612.58;107001;1260;60080;-84
2023/06/07 12:23:46;;;;;;;;;;;;;;;25.51;31.94;101612.04;107140;1260;75006;-83
2023/06/07 12:26:14;;;;;;;;;;;;;;;25.49;31.83;101606.67;106900;1262;124356;-84
2023/06/07 12:28:50;;;;;;;;;;;;;;;25.49;32.01;101605.25;106666;1260;72705;-85
2023/06/07 12:31:18;;;;;;;;;;;;;;;25.47;32.13;101597.74;106757;1260;124269;-84
2023/06/07 12:34:05;;;;;;;;;;;;;;;25.49;32.25;101600.92;107041;1261;61257;-84
2023/06/07 12:36:33;;;;;;;;;;;;;;;25.51;32.17;101596.58;106916;1260;124295;-84
2023/06/07 12:39:10;;;;;;;;;;;;;;;25.53;32.19;101594.55;106922;1266;66892;-84
2023/06/07 12:41:37;;;;;;;;;;;;;;;25.53;32.10;101593.27;107072;1260;71474;-84
2023/06/07 12:44:05;;;;;;;;;;;;;;;25.57;32.19;101591.91;107004;1261;124305;-84
2023/06/07 12:46:34;;;;;;;;;;;;;;;25.64;32.06;101588.86;106830;1260;60374;-86
2023/06/07 12:49:01;;;;;;;;;;;;;;;25.71;32.02;101583.88;106826;1260;124186;-84
2023/06/07 12:51:27;;;;;;;;;;;;;;;25.74;31.85;101587.19;106776;1264;67085;-83
2023/06/07 12:53:56;;;;;;;;;;;;;;;25.77;31.92;101581.71;107062;1260;124350;-82
2023/06/07 12:56:22;;;;;;;;;;;;;;;25.76;31.76;101577.61;107028;1260;61336;-83